Mount Sterling, KY (40353)

9:10 PM EST on December 10, 2016 (GMT -0500)
Downtown | | Change Station

Elev 1001 ft 38.06 °N, 83.95 °W | Updated 15 seconds ago

Clear
Clear
27.7 °F
Feels Like 28 °F
N
0.0
Wind Variable Wind from West

Today
High -- | Low -- °F
--% Chance of Precip.
Yesterday
High -- | Low -- °F
Precip. -- in
Pressure 30.45 in
Visibility 10.0 miles
Clouds Clear
Windchill 28 °F
Dew Point 18 °F
Humidity 67%
Rainfall 0.00 in
Snow Depth Not available.
7:41 AM 5:16 PM
Waxing Gibbous, 88% visible
METAR KIOB 110155Z AUTO 00000KT 10SM CLR M01/M08 A3045 RMK AO2
Pressure 30.45 in
Visibility 10.0 miles
Clouds Clear
Windchill 28 °F
Dew Point 18 °F
Humidity 67%
Rainfall 0.00 in
Snow Depth Not available.
7:41 AM 5:16 PM
Waxing Gibbous, 88% visible
METAR KIOB 110155Z AUTO 00000KT 10SM CLR M01/M08 A3045 RMK AO2

10-Day Weather Forecast

Almanac

Astronomy

Dec. 10, 2016 Rise Set
Actual Time
Civil Twilight
Nautical Twilight
Astronomical Twilight
Moon
Length of Visible Light
Length of Day
Tomorrow will be .
, % of the Moon is Illuminated

Today's Extremes

State Highs State Lows

Community

WunderPhotos

Upload Photos

1,956,690 photos uploaded!

WunderBlog® & News

Nearby

Air Quality

  Air Quality AQ Index Pollutant
Not available.

Snow Depth

Station Depth Elevation

Earthquake Activity

City Distance Mag. Time & Date
Minimum magnitude displayed is 2.5.

Coastal Water Temperatures

Place Temperature

Stations

Nearby Weather Stations

Station Location Temp. Windchill Dew Point Humidity Wind Precip. Elev Updated Type
                   

Watches & Warnings

There are currently no watches in effect.